Time;durP1;ratioP1;P1;durP2;ratioP2;P2;SDS_P1;SDS_P2;PMS_P1;PMS_P2;Temp;Humidity;BMP_temperature;BMP_pressure;BME280_temperature;BME280_humidity;BME280_pressure;Samples;Min_cycle;Max_cycle;Signal;HPM_P1;HPM_P2
2022/06/25 00:00:51;;;;;;;1.30;1.20;;;16.60;23.40;;;;;;5110645;27;34125;-78
2022/06/25 00:03:17;;;;;;;1.30;1.20;;;16.60;23.50;;;;;;5146030;27;34096;-78
2022/06/25 00:05:43;;;;;;;1.92;1.23;;;16.60;23.50;;;;;;5125126;27;34172;-78
2022/06/25 00:08:09;;;;;;;3.10;1.45;;;16.50;23.70;;;;;;5142025;27;35794;-78
2022/06/25 00:10:35;;;;;;;1.52;1.40;;;16.50;23.60;;;;;;5123921;27;34349;-78
2022/06/25 00:13:00;;;;;;;1.80;1.27;;;16.50;23.70;;;;;;5141541;27;35161;-78
2022/06/25 00:15:26;;;;;;;4.20;1.33;;;16.50;23.70;;;;;;5142167;27;34206;-78
2022/06/25 00:17:52;;;;;;;1.77;1.15;;;16.40;23.60;;;;;;5141513;27;35979;-78
2022/06/25 00:20:18;;;;;;;1.60;1.27;;;16.40;23.70;;;;;;5125555;27;34395;-78
2022/06/25 00:22:44;;;;;;;1.30;1.20;;;16.40;23.70;;;;;;5134632;27;34392;-78
2022/06/25 00:25:10;;;;;;;1.63;1.35;;;16.40;23.70;;;;;;5145343;27;34300;-78
2022/06/25 00:27:36;;;;;;;2.63;1.55;;;16.30;23.80;;;;;;5146159;27;36345;-78
2022/06/25 00:30:03;;;;;;;3.05;1.30;;;16.30;23.90;;;;;;5130492;27;34333;-78
2022/06/25 00:32:29;;;;;;;2.13;1.27;;;16.20;24.50;;;;;;5142209;27;34317;-78
2022/06/25 00:34:55;;;;;;;1.48;1.13;;;16.20;23.90;;;;;;5128982;27;34195;-78
2022/06/25 00:37:21;;;;;;;2.00;1.20;;;16.20;23.80;;;;;;5138539;27;35629;-78
2022/06/25 00:39:46;;;;;;;4.10;1.40;;;16.20;23.90;;;;;;5147425;27;34173;-78
2022/06/25 00:42:14;;;;;;;2.50;1.40;;;16.20;23.90;;;;;;5144849;27;34215;-78
2022/06/25 00:44:40;;;;;;;2.10;1.30;;;16.20;23.90;;;;;;5145965;27;34010;-78
2022/06/25 00:47:09;;;;;;;2.88;1.13;;;16.20;24.00;;;;;;5145934;27;36429;-78
2022/06/25 00:49:36;;;;;;;1.38;1.27;;;16.20;24.00;;;;;;5145502;27;34202;-78
2022/06/25 00:52:08;;;;;;;5.93;1.20;;;16.20;24.00;;;;;;5129218;27;34388;-79
2022/06/25 00:54:37;;;;;;;1.63;1.25;;;16.20;24.20;;;;;;5143320;27;34182;-79
2022/06/25 00:57:06;;;;;;;4.25;1.40;;;16.20;24.10;;;;;;5142665;27;35666;-78
2022/06/25 00:59:38;;;;;;;6.28;1.60;;;16.10;24.20;;;;;;5142711;27;34263;-79
2022/06/25 01:02:05;;;;;;;1.88;1.25;;;16.10;24.20;;;;;;5127501;27;34103;-78
2022/06/25 01:04:30;;;;;;;4.32;1.60;;;16.10;24.10;;;;;;5146100;27;34164;-79
2022/06/25 01:06:56;;;;;;;2.15;1.40;;;16.10;24.10;;;;;;5129841;27;35551;-78
2022/06/25 01:09:22;;;;;;;2.15;1.45;;;16.10;24.10;;;;;;5135642;27;34284;-79
2022/06/25 01:11:48;;;;;;;1.13;1.10;;;16.10;24.10;;;;;;5131519;27;34014;-79
2022/06/25 01:14:14;;;;;;;3.45;1.40;;;16.00;24.10;;;;;;5134241;27;34119;-79
2022/06/25 01:16:40;;;;;;;2.35;1.40;;;16.00;24.10;;;;;;5137007;27;36529;-79
2022/06/25 01:19:08;;;;;;;3.33;1.20;;;16.10;24.30;;;;;;5161703;27;34174;-79
2022/06/25 01:21:35;;;;;;;2.90;1.33;;;16.00;24.30;;;;;;5146370;27;34183;-79
2022/06/25 01:24:02;;;;;;;1.40;1.30;;;16.00;24.30;;;;;;5130167;27;34114;-78
2022/06/25 01:26:28;;;;;;;3.58;1.17;;;16.00;24.30;;;;;;5131022;27;34920;-78
2022/06/25 01:28:54;;;;;;;1.33;1.23;;;16.00;24.30;;;;;;5132446;27;34208;-78
2022/06/25 01:31:20;;;;;;;1.35;1.25;;;16.00;24.30;;;;;;5150467;27;34191;-79
2022/06/25 01:33:46;;;;;;;1.70;1.52;;;16.00;24.40;;;;;;5151266;27;35466;-79
2022/06/25 01:36:12;;;;;;;3.38;1.38;;;15.90;24.40;;;;;;5149196;27;35501;-79
2022/06/25 01:38:37;;;;;;;4.45;1.35;;;15.90;24.30;;;;;;5144690;27;34293;-79
2022/06/25 01:41:03;;;;;;;2.10;1.30;;;15.90;24.40;;;;;;5151217;27;34233;-79
2022/06/25 01:43:29;;;;;;;2.00;1.10;;;15.90;24.40;;;;;;5150545;27;34177;-79
2022/06/25 01:45:55;;;;;;;4.32;1.55;;;15.90;24.50;;;;;;5127831;27;35787;-79
2022/06/25 01:48:21;;;;;;;1.00;1.00;;;15.90;24.50;;;;;;5123235;27;34112;-79
2022/06/25 01:50:48;;;;;;;3.72;1.50;;;15.80;24.40;;;;;;5162779;27;34238;-78
2022/06/25 01:53:14;;;;;;;1.23;1.13;;;15.80;24.50;;;;;;5112479;27;33955;-78
2022/06/25 01:55:40;;;;;;;1.40;1.30;;;15.80;24.40;;;;;;5112854;27;36237;-78
2022/06/25 01:58:06;;;;;;;2.72;1.33;;;15.80;24.40;;;;;;5150420;27;34190;-79
2022/06/25 02:00:32;;;;;;;7.28;1.52;;;15.80;24.60;;;;;;5148534;27;34086;-79
2022/06/25 02:02:59;;;;;;;1.48;1.27;;;15.80;24.40;;;;;;5130547;27;33831;-79
2022/06/25 02:08:11;;;;;;;2.78;1.27;;;15.70;24.50;;;;;;5130321;27;34494;-79
2022/06/25 02:10:37;;;;;;;3.60;1.30;;;15.70;24.50;;;;;;5130831;27;34078;-79
2022/06/25 02:13:03;;;;;;;3.00;1.27;;;15.70;24.50;;;;;;5147105;27;34022;-79
2022/06/25 02:15:29;;;;;;;2.58;1.30;;;15.70;24.50;;;;;;5132292;27;34938;-79
2022/06/25 02:17:55;;;;;;;4.30;1.50;;;15.70;24.60;;;;;;5138391;27;34359;-79
2022/06/25 02:20:21;;;;;;;3.78;1.50;;;15.70;24.60;;;;;;5150293;27;34248;-79
2022/06/25 02:22:47;;;;;;;2.67;1.27;;;15.70;24.60;;;;;;5161459;27;34342;-79
2022/06/25 02:25:13;;;;;;;7.40;1.52;;;15.70;24.70;;;;;;5115558;27;35753;-79
2022/06/25 02:27:39;;;;;;;1.20;1.15;;;15.70;24.70;;;;;;5148524;27;34621;-79
2022/06/25 02:30:05;;;;;;;4.15;1.60;;;15.70;24.70;;;;;;5140680;27;34285;-79
2022/06/25 02:32:32;;;;;;;1.88;1.40;;;15.70;24.70;;;;;;5114029;27;34245;-79
2022/06/25 02:34:58;;;;;;;2.42;1.45;;;15.80;24.80;;;;;;5128216;27;35875;-79
2022/06/25 02:37:24;;;;;;;8.43;1.70;;;15.80;24.90;;;;;;5139775;27;34075;-79
2022/06/25 02:39:50;;;;;;;3.65;1.38;;;15.80;24.80;;;;;;5149451;27;34229;-79
2022/06/25 02:42:16;;;;;;;1.45;1.35;;;15.80;24.70;;;;;;5134403;27;34083;-79
2022/06/25 02:44:42;;;;;;;1.33;1.23;;;15.80;24.70;;;;;;5129349;27;35766;-79
2022/06/25 02:47:08;;;;;;;1.50;1.40;;;15.80;24.60;;;;;;5127776;27;34333;-79
2022/06/25 02:49:34;;;;;;;2.15;1.10;;;15.80;24.60;;;;;;5163341;27;33696;-79
2022/06/25 02:52:00;;;;;;;1.38;1.27;;;15.80;24.70;;;;;;5129639;27;34143;-79
2022/06/25 02:54:26;;;;;;;3.75;1.55;;;15.70;24.70;;;;;;5129215;27;36252;-79
2022/06/25 02:59:38;;;;;;;1.63;1.00;;;15.70;25.00;;;;;;5130260;27;34135;-79
2022/06/25 03:02:04;;;;;;;4.20;1.42;;;15.70;24.90;;;;;;5094462;27;34206;-78
2022/06/25 03:04:29;;;;;;;3.40;1.30;;;15.70;24.90;;;;;;5128396;27;35909;-79
2022/06/25 03:06:55;;;;;;;1.50;1.10;;;15.60;24.80;;;;;;5115280;27;34526;-79
2022/06/25 03:09:23;;;;;;;3.33;1.40;;;15.60;24.80;;;;;;5129375;27;34388;-79
2022/06/25 03:11:49;;;;;;;2.47;1.40;;;15.60;24.80;;;;;;5177322;27;34629;-79
2022/06/25 03:14:16;;;;;;;1.83;1.52;;;15.60;24.90;;;;;;5116876;27;36680;-79
2022/06/25 03:16:42;;;;;;;3.97;1.55;;;15.60;24.90;;;;;;5134456;27;34162;-79
2022/06/25 03:19:09;;;;;;;1.80;1.38;;;15.60;24.80;;;;;;5142014;27;34290;-79
2022/06/25 03:21:35;;;;;;;3.05;1.20;;;15.60;24.90;;;;;;5128395;27;34364;-79
2022/06/25 03:24:02;;;;;;;1.38;1.27;;;15.60;24.80;;;;;;5128143;27;35716;-78
2022/06/25 03:26:28;;;;;;;3.55;1.70;;;15.60;24.90;;;;;;5113099;27;34186;-79
2022/06/25 03:28:55;;;;;;;2.13;1.17;;;15.60;25.00;;;;;;5167603;27;34302;-79
2022/06/25 03:31:21;;;;;;;1.20;1.10;;;15.50;24.90;;;;;;5125313;27;33955;-79
2022/06/25 03:33:47;;;;;;;1.33;1.23;;;15.50;25.00;;;;;;5128836;27;35632;-79
2022/06/25 03:36:13;;;;;;;1.27;1.17;;;15.50;25.00;;;;;;5162875;27;33836;-79
2022/06/25 03:38:39;;;;;;;3.13;1.40;;;15.50;24.90;;;;;;5148464;27;34173;-79
2022/06/25 03:43:47;;;;;;;3.75;1.42;;;15.40;25.00;;;;;;5150481;27;34755;-79
2022/06/25 03:46:13;;;;;;;5.57;1.42;;;15.40;24.90;;;;;;5151379;27;34426;-79
2022/06/25 03:48:57;;;;;;;6.32;1.63;;;15.40;25.00;;;;;;5145287;27;34275;-79
2022/06/25 03:51:23;;;;;;;2.40;1.52;;;15.40;25.10;;;;;;5134779;27;34160;-79
2022/06/25 03:53:49;;;;;;;5.68;1.80;;;15.40;25.00;;;;;;5111903;27;36359;-79
2022/06/25 03:56:15;;;;;;;3.47;1.50;;;15.40;25.10;;;;;;5135631;27;34186;-79
2022/06/25 03:58:41;;;;;;;6.88;1.80;;;15.40;25.20;;;;;;5148679;27;34219;-79
2022/06/25 04:01:06;;;;;;;1.65;1.42;;;15.40;25.20;;;;;;5164397;27;34426;-78
2022/06/25 04:03:33;;;;;;;3.13;1.80;;;15.30;25.20;;;;;;5133290;27;36452;-78
2022/06/25 04:05:59;;;;;;;3.25;1.63;;;15.30;25.20;;;;;;5130056;27;34270;-79
2022/06/25 04:08:25;;;;;;;3.33;1.70;;;15.30;25.30;;;;;;5128100;27;34399;-79
2022/06/25 04:10:50;;;;;;;2.67;1.60;;;15.40;25.20;;;;;;5128483;27;34442;-78
2022/06/25 04:13:16;;;;;;;1.63;1.52;;;15.40;25.10;;;;;;5141276;27;34084;-78
2022/06/25 04:15:42;;;;;;;1.48;1.38;;;15.30;25.20;;;;;;5130762;27;34034;-79
2022/06/25 04:18:08;;;;;;;5.75;1.75;;;15.40;25.20;;;;;;5129014;27;33989;-79
2022/06/25 04:20:34;;;;;;;2.45;1.83;;;15.40;25.20;;;;;;5135283;27;33869;-79
2022/06/25 04:23:00;;;;;;;3.45;1.85;;;15.40;25.10;;;;;;5146223;27;35935;-79
2022/06/25 04:25:27;;;;;;;4.47;1.75;;;15.40;25.10;;;;;;5127924;27;34125;-79
2022/06/25 04:30:35;;;;;;;2.15;1.65;;;15.50;25.10;;;;;;5133106;27;34158;-79
2022/06/25 04:33:01;;;;;;;2.00;1.58;;;15.50;25.10;;;;;;5148951;27;35825;-79
2022/06/25 04:35:27;;;;;;;2.67;1.80;;;15.50;25.00;;;;;;5156045;27;34285;-79
2022/06/25 04:37:52;;;;;;;1.75;1.65;;;15.60;25.10;;;;;;5149085;27;34219;-79
2022/06/25 04:40:18;;;;;;;5.43;2.08;;;15.60;25.10;;;;;;5148246;27;34241;-78
2022/06/25 04:42:45;;;;;;;3.10;1.75;;;15.60;25.10;;;;;;5127381;27;35583;-79
2022/06/25 04:45:11;;;;;;;2.30;1.77;;;15.60;25.10;;;;;;5129638;27;34255;-79
2022/06/25 04:47:38;;;;;;;3.70;1.75;;;15.60;25.10;;;;;;5154782;27;34362;-79
2022/06/25 04:50:05;;;;;;;4.35;1.67;;;15.60;25.10;;;;;;5177744;27;34050;-79
2022/06/25 04:52:31;;;;;;;6.72;1.60;;;15.60;25.00;;;;;;5130844;27;34230;-79
2022/06/25 04:54:57;;;;;;;4.60;1.70;;;15.70;25.10;;;;;;5149424;27;34842;-79
2022/06/25 04:57:23;;;;;;;1.77;1.67;;;15.80;25.10;;;;;;5142327;27;34248;-79
2022/06/25 04:59:48;;;;;;;3.97;2.05;;;15.90;25.10;;;;;;5147955;27;34218;-79
2022/06/25 05:02:14;;;;;;;5.72;1.90;;;15.90;25.10;;;;;;5133523;27;36489;-79
2022/06/25 05:04:40;;;;;;;10.95;2.10;;;16.00;25.10;;;;;;5151186;27;34101;-79
2022/06/25 05:07:06;;;;;;;33.35;2.97;;;16.10;25.10;;;;;;5145504;27;34456;-79
2022/06/25 05:09:32;;;;;;;18.80;2.13;;;16.20;25.10;;;;;;5160953;27;33806;-79
2022/06/25 05:11:58;;;;;;;11.70;1.90;;;16.30;25.00;;;;;;5161650;27;34494;-79
2022/06/25 05:14:25;;;;;;;19.45;2.30;;;16.40;25.00;;;;;;5149147;27;34211;-79
2022/06/25 05:16:51;;;;;;;7.43;2.13;;;16.50;24.90;;;;;;5149004;27;34238;-79
2022/06/25 05:19:17;;;;;;;1.98;1.60;;;16.70;24.70;;;;;;5148830;27;34157;-79
2022/06/25 05:21:43;;;;;;;1.95;1.77;;;16.90;24.60;;;;;;5144721;27;35907;-80
2022/06/25 05:24:09;;;;;;;2.20;2.00;;;17.30;24.30;;;;;;5136861;27;34323;-80
2022/06/25 05:26:34;;;;;;;4.38;1.83;;;17.80;23.60;;;;;;5136467;27;34601;-80
2022/06/25 05:29:00;;;;;;;3.33;1.90;;;18.60;22.30;;;;;;5110864;27;34461;-81
2022/06/25 05:31:26;;;;;;;1.55;1.45;;;19.40;20.70;;;;;;5128236;27;35936;-81
2022/06/25 05:33:52;;;;;;;1.80;1.70;;;20.20;19.60;;;;;;5156035;27;34305;-82
2022/06/25 05:36:18;;;;;;;2.47;1.83;;;20.90;18.50;;;;;;5149799;27;34163;-82
2022/06/25 05:38:44;;;;;;;3.25;1.90;;;21.30;17.80;;;;;;5148381;27;34402;-81
2022/06/25 05:41:10;;;;;;;1.60;1.50;;;21.50;17.40;;;;;;5141520;27;35520;-81
2022/06/25 05:43:37;;;;;;;3.15;1.52;;;21.50;17.60;;;;;;5132041;27;34329;-81
2022/06/25 05:46:04;;;;;;;1.80;1.67;;;21.40;17.80;;;;;;5134816;27;34273;-81
2022/06/25 05:48:32;;;;;;;1.70;1.60;;;21.30;18.00;;;;;;5132922;27;35364;-81
2022/06/25 05:50:58;;;;;;;2.25;1.75;;;21.30;18.30;;;;;;5150806;27;35930;-81
2022/06/25 05:53:25;;;;;;;1.80;1.70;;;21.30;18.50;;;;;;5150705;27;34265;-81
2022/06/25 05:55:52;;;;;;;2.03;1.58;;;21.40;18.40;;;;;;5150036;27;34207;-81
2022/06/25 05:58:18;;;;;;;1.50;1.40;;;21.50;18.40;;;;;;5134502;27;34478;-82
2022/06/25 06:00:45;;;;;;;1.65;1.55;;;21.70;18.40;;;;;;5151234;27;35611;-81
2022/06/25 06:03:12;;;;;;;1.65;1.55;;;21.60;18.20;;;;;;5146485;27;34166;-81
2022/06/25 06:05:39;;;;;;;1.42;1.33;;;21.70;18.00;;;;;;5156474;27;34194;-81
2022/06/25 06:08:06;;;;;;;1.67;1.58;;;22.20;17.70;;;;;;5169678;27;34567;-81
2022/06/25 06:10:32;;;;;;;1.98;1.80;;;22.70;17.10;;;;;;5170018;27;35555;-81
2022/06/25 06:12:58;;;;;;;3.70;1.60;;;23.30;16.50;;;;;;5154390;27;34358;-80
2022/06/25 06:15:24;;;;;;;3.75;1.75;;;23.60;15.60;;;;;;5160855;27;34343;-80
2022/06/25 06:17:50;;;;;;;2.67;1.83;;;24.00;14.90;;;;;;5161535;27;34164;-80
2022/06/25 06:20:16;;;;;;;3.05;1.73;;;24.60;14.30;;;;;;5150411;27;35564;-80
2022/06/25 06:22:42;;;;;;;4.43;1.58;;;25.00;13.70;;;;;;5131235;27;34057;-79
2022/06/25 06:25:08;;;;;;;4.55;1.50;;;25.20;12.80;;;;;;5149221;27;34103;-79
2022/06/25 06:27:34;;;;;;;2.28;1.45;;;25.40;12.50;;;;;;5147885;27;34184;-79
2022/06/25 06:30:00;;;;;;;1.35;1.25;;;25.50;12.30;;;;;;5157889;27;35509;-80
2022/06/25 06:32:26;;;;;;;2.58;1.50;;;25.60;12.10;;;;;;5147993;27;34348;-79
2022/06/25 06:34:52;;;;;;;1.98;1.75;;;25.60;11.80;;;;;;5147211;27;34238;-79
2022/06/25 06:37:18;;;;;;;2.28;1.50;;;25.50;11.90;;;;;;5162554;27;34234;-78
2022/06/25 06:39:44;;;;;;;1.75;1.40;;;25.80;11.90;;;;;;5158029;27;35817;-80
2022/06/25 06:42:10;;;;;;;2.80;1.60;;;26.20;11.70;;;;;;5134647;27;35182;-78
2022/06/25 06:44:36;;;;;;;2.22;2.03;;;26.50;11.10;;;;;;5127057;27;34151;-78
2022/06/25 06:47:02;;;;;;;1.77;1.50;;;26.40;11.00;;;;;;5170095;27;35634;-78
2022/06/25 06:49:28;;;;;;;1.75;1.50;;;26.30;11.10;;;;;;5138796;27;34062;-79
2022/06/25 06:51:54;;;;;;;1.75;1.50;;;26.00;11.60;;;;;;5148358;27;34156;-81
2022/06/25 06:54:20;;;;;;;2.50;1.50;;;25.90;11.40;;;;;;5148169;27;34206;-80
2022/06/25 06:56:46;;;;;;;1.70;1.10;;;26.40;11.60;;;;;;5165266;27;34548;-78
2022/06/25 06:59:12;;;;;;;1.48;1.08;;;27.00;11.10;;;;;;5149637;27;35829;-78
2022/06/25 07:01:38;;;;;;;3.22;1.35;;;27.20;10.20;;;;;;5142457;27;34390;-77
2022/06/25 07:04:04;;;;;;;4.50;1.38;;;27.50;9.50;;;;;;5141689;27;34343;-78
2022/06/25 07:06:30;;;;;;;1.33;1.20;;;27.70;9.10;;;;;;5146795;27;34460;-78
2022/06/25 07:08:56;;;;;;;4.90;1.52;;;27.70;8.90;;;;;;5131466;27;35658;-79
2022/06/25 07:11:29;;;;;;;1.75;1.30;;;27.80;8.70;;;;;;5147571;27;34403;-79
2022/06/25 07:13:58;;;;;;;3.17;1.30;;;27.80;8.20;;;;;;5130925;27;34092;-79
2022/06/25 07:16:24;;;;;;;2.15;1.27;;;27.90;7.80;;;;;;5148789;27;34097;-77
2022/06/25 07:18:50;;;;;;;2.22;1.42;;;27.50;8.80;;;;;;5148354;27;34134;-79
2022/06/25 07:21:17;;;;;;;1.40;1.30;;;27.40;9.10;;;;;;5147553;27;34103;-79
2022/06/25 07:23:43;;;;;;;2.78;1.50;;;27.30;9.20;;;;;;5147044;27;34550;-78
2022/06/25 07:26:09;;;;;;;3.90;1.40;;;27.20;9.10;;;;;;5147471;27;34596;-78
2022/06/25 07:28:35;;;;;;;1.60;1.23;;;26.90;9.30;;;;;;5147492;27;34313;-80
2022/06/25 07:31:01;;;;;;;2.17;1.40;;;26.60;9.70;;;;;;5141504;27;34529;-79
2022/06/25 07:33:29;;;;;;;1.60;1.48;;;26.30;10.10;;;;;;5137990;27;34104;-79
2022/06/25 07:35:56;;;;;;;2.58;1.40;;;26.10;10.20;;;;;;5143872;27;34572;-80
2022/06/25 07:38:22;;;;;;;1.70;1.20;;;25.90;10.10;;;;;;5146968;27;35858;-79
2022/06/25 07:40:49;;;;;;;6.05;1.55;;;26.00;10.20;;;;;;5142153;27;34354;-79
2022/06/25 07:43:16;;;;;;;3.00;1.45;;;26.30;10.00;;;;;;5138084;27;34232;-78
2022/06/25 07:45:42;;;;;;;2.78;1.40;;;26.40;9.90;;;;;;5145200;27;34112;-78
2022/06/25 07:48:08;;;;;;;1.30;1.20;;;26.40;9.80;;;;;;5129101;27;36380;-78
2022/06/25 07:53:15;;;;;;;1.50;1.40;;;26.40;10.00;;;;;;5147536;27;34227;-79
2022/06/25 07:55:42;;;;;;;2.40;1.30;;;26.80;9.30;;;;;;5145207;27;34162;-78
2022/06/25 07:58:08;;;;;;;3.22;1.23;;;27.20;9.00;;;;;;5127519;27;35535;-79
2022/06/25 08:00:34;;;;;;;3.25;1.20;;;27.20;9.10;;;;;;5111231;27;34132;-79
2022/06/25 08:03:01;;;;;;;4.05;1.60;;;27.60;8.40;;;;;;5157587;27;34322;-80
2022/06/25 08:05:28;;;;;;;1.30;1.20;;;27.80;8.10;;;;;;5128869;27;34804;-79
2022/06/25 08:07:54;;;;;;;1.75;1.20;;;27.70;8.10;;;;;;5137821;27;35835;-78
2022/06/25 08:10:21;;;;;;;1.50;1.25;;;27.40;8.30;;;;;;5129905;27;34103;-79
2022/06/25 08:12:48;;;;;;;4.85;1.40;;;27.00;8.70;;;;;;5147350;27;34018;-78
2022/06/25 08:15:14;;;;;;;3.95;1.30;;;26.90;8.40;;;;;;5147460;27;34009;-79
2022/06/25 08:17:41;;;;;;;2.30;1.38;;;26.60;8.80;;;;;;5151729;27;35181;-79
2022/06/25 08:20:07;;;;;;;1.73;1.23;;;26.10;9.10;;;;;;5137245;27;34250;-78
2022/06/25 08:22:33;;;;;;;2.55;1.38;;;25.70;9.20;;;;;;5166886;27;34037;-78
2022/06/25 08:24:59;;;;;;;3.05;1.35;;;25.50;9.50;;;;;;5158232;27;34433;-79
2022/06/25 08:27:25;;;;;;;1.75;1.27;;;25.40;9.30;;;;;;5124265;27;36502;-79
2022/06/25 08:29:51;;;;;;;4.25;1.30;;;25.40;9.00;;;;;;5147299;27;34159;-78
2022/06/25 08:32:17;;;;;;;4.20;1.30;;;25.80;8.90;;;;;;5145461;27;34096;-79
2022/06/25 08:34:43;;;;;;;2.03;1.30;;;26.40;8.80;;;;;;5146361;27;34282;-78
2022/06/25 08:37:09;;;;;;;2.22;1.17;;;26.90;8.20;;;;;;5143365;27;34135;-78
2022/06/25 08:39:35;;;;;;;2.45;1.60;;;27.40;8.30;;;;;;5124532;27;34186;-79
2022/06/25 08:42:03;;;;;;;1.92;1.23;;;27.60;7.30;;;;;;5108062;27;34250;-77
2022/06/25 08:44:31;;;;;;;1.13;1.10;;;27.40;5.70;;;;;;5107344;27;34518;-78
2022/06/25 08:46:58;;;;;;;2.13;1.30;;;27.10;6.90;;;;;;5115762;27;36565;-77
2022/06/25 08:49:26;;;;;;;2.78;1.27;;;26.80;7.20;;;;;;5124507;27;34080;-78
2022/06/25 08:51:54;;;;;;;1.73;1.13;;;26.50;7.30;;;;;;5135475;27;34302;-78
2022/06/25 08:54:22;;;;;;;4.75;1.40;;;26.40;7.00;;;;;;5144595;27;34187;-79
2022/06/25 08:56:48;;;;;;;3.00;1.40;;;26.20;7.20;;;;;;5128151;27;35645;-78
2022/06/25 08:59:14;;;;;;;2.70;1.50;;;26.20;8.00;;;;;;5143753;27;34217;-79
2022/06/25 09:01:40;;;;;;;1.42;1.10;;;26.10;7.80;;;;;;5142265;27;34095;-79
2022/06/25 09:04:06;;;;;;;2.70;1.52;;;26.00;7.80;;;;;;5140404;27;34250;-78
2022/06/25 09:06:32;;;;;;;2.42;1.60;;;25.90;7.50;;;;;;5144288;27;34391;-78
2022/06/25 09:09:15;;;;;;;3.15;1.20;;;25.70;7.90;;;;;;5134476;27;34273;-79
2022/06/25 09:11:53;;;;;;;2.17;1.20;;;25.60;7.70;;;;;;5141365;27;34059;-77
2022/06/25 09:14:24;;;;;;;3.70;1.40;;;25.60;8.00;;;;;;5123231;27;34302;-78
2022/06/25 09:16:58;;;;;;;3.97;1.52;;;25.90;6.70;;;;;;5124368;27;35623;-78
2022/06/25 09:19:30;;;;;;;1.38;1.02;;;26.30;7.60;;;;;;5132673;27;34143;-77
2022/06/25 09:21:58;;;;;;;2.67;1.10;;;26.70;5.30;;;;;;5144407;27;34134;-78
2022/06/25 09:24:38;;;;;;;4.63;1.30;;;27.20;7.10;;;;;;5146679;27;34422;-78
2022/06/25 09:27:04;;;;;;;1.55;1.45;;;27.70;6.70;;;;;;5132966;27;35063;-78
2022/06/25 09:29:39;;;;;;;1.13;1.08;;;28.20;6.00;;;;;;5110035;27;34184;-78
2022/06/25 09:32:06;;;;;;;2.40;1.10;;;28.60;5.10;;;;;;5113683;27;34531;-79
2022/06/25 09:34:35;;;;;;;1.55;1.20;;;29.00;5.70;;;;;;5161702;27;34506;-79
2022/06/25 09:37:21;;;;;;;2.50;1.20;;;29.30;5.00;;;;;;5163331;27;35791;-77
2022/06/25 09:39:48;;;;;;;2.75;1.17;;;29.50;1.00;;;;;;5143813;27;34073;-77
2022/06/25 09:42:32;;;;;;;1.25;1.15;;;29.50;3.30;;;;;;5140612;27;34187;-78
2022/06/25 09:45:09;;;;;;;2.70;1.15;;;29.50;1.00;;;;;;5163205;27;34249;-77
2022/06/25 09:47:38;;;;;;;1.40;0.80;;;29.40;1.00;;;;;;5111018;27;35837;-78
2022/06/25 09:50:08;;;;;;;2.13;1.00;;;29.50;3.20;;;;;;5127723;27;34138;-78
2022/06/25 09:52:35;;;;;;;2.88;0.98;;;29.90;2.80;;;;;;5128843;27;34203;-77
2022/06/25 09:55:01;;;;;;;1.10;0.90;;;30.00;3.10;;;;;;5145619;27;34214;-79
2022/06/25 09:57:28;;;;;;;1.65;1.00;;;30.10;2.60;;;;;;5137385;27;35830;-79
2022/06/25 09:59:58;;;;;;;1.52;0.90;;;30.10;2.40;;;;;;5153731;27;34360;-77
2022/06/25 10:02:28;;;;;;;2.33;0.90;;;30.20;1.40;;;;;;5146777;27;34472;-80
2022/06/25 10:04:59;;;;;;;2.63;1.13;;;30.20;1.00;;;;;;5150495;27;34444;-77
2022/06/25 10:07:59;;;;;;;2.55;1.35;;;29.90;1.00;;;;;;5147349;27;36397;-78
2022/06/25 10:10:19;;;;;;;1.92;1.60;;;29.60;1.10;;;;;;5136556;27;34043;-80
2022/06/25 10:12:46;;;;;;;2.15;1.15;;;29.20;1.00;;;;;;5149676;27;34273;-79
2022/06/25 10:15:15;;;;;;;2.22;1.00;;;28.90;1.10;;;;;;5137291;27;34781;-77
2022/06/25 10:17:42;;;;;;;1.23;0.80;;;28.60;1.20;;;;;;5143444;27;36887;-78
2022/06/25 10:20:08;;;;;;;4.95;1.27;;;28.20;1.80;;;;;;5127788;27;34167;-77
2022/06/25 10:22:37;;;;;;;2.88;1.08;;;27.90;1.70;;;;;;5145999;27;34128;-78
2022/06/25 10:25:04;;;;;;;2.03;1.20;;;27.70;1.30;;;;;;5148606;27;34579;-78
2022/06/25 10:27:39;;;;;;;1.27;1.10;;;27.60;2.20;;;;;;5145699;27;36151;-78
2022/06/25 10:30:05;;;;;;;2.92;1.33;;;27.40;1.00;;;;;;5140272;27;34358;-78
2022/06/25 10:32:40;;;;;;;4.60;1.00;;;27.20;2.20;;;;;;5142968;27;34201;-78
2022/06/25 10:35:06;;;;;;;2.28;1.08;;;27.10;2.80;;;;;;5183733;27;34461;-78
2022/06/25 10:38:03;;;;;;;4.53;1.88;;;27.00;2.90;;;;;;5131654;27;36604;-79
2022/06/25 10:40:31;;;;;;;1.88;1.02;;;27.20;1.00;;;;;;5149482;27;33673;-77
2022/06/25 10:43:00;;;;;;;1.95;1.40;;;27.30;2.30;;;;;;5147856;27;34303;-80
2022/06/25 10:45:45;;;;;;;3.38;1.20;;;27.40;2.20;;;;;;5150131;27;34056;-79
2022/06/25 10:48:13;;;;;;;0.95;0.88;;;27.50;1.00;;;;;;5132633;27;35623;-78
2022/06/25 10:50:44;;;;;;;2.40;0.93;;;27.40;1.90;;;;;;5134934;27;34166;-79
2022/06/25 10:53:23;;;;;;;1.73;0.90;;;27.40;1.80;;;;;;5110902;27;34175;-80
2022/06/25 10:56:12;;;;;;;2.47;1.13;;;27.40;1.00;;;;;;5129803;27;34472;-78
2022/06/25 10:58:46;;;;;;;2.10;0.93;;;27.60;1.00;;;;;;5125925;27;35923;-79
2022/06/25 11:01:23;;;;;;;1.50;1.25;;;27.80;1.00;;;;;;5143599;27;34119;-78
2022/06/25 11:03:59;;;;;;;3.10;1.05;;;28.10;1.00;;;;;;5144925;27;34088;-78
2022/06/25 11:06:32;;;;;;;0.93;0.90;;;28.10;1.00;;;;;;5127076;27;34181;-77
2022/06/25 11:09:09;;;;;;;2.83;1.13;;;27.90;1.00;;;;;;5126912;27;35879;-78
2022/06/25 11:11:36;;;;;;;4.28;1.20;;;27.90;1.00;;;;;;5109547;27;34152;-77
2022/06/25 11:14:03;;;;;;;1.88;1.15;;;27.80;1.10;;;;;;5153002;27;34096;-77
2022/06/25 11:16:30;;;;;;;8.02;1.23;;;27.70;1.00;;;;;;5150580;27;34394;-78
2022/06/25 11:18:58;;;;;;;2.70;1.13;;;27.80;1.30;;;;;;5125326;27;35637;-77
2022/06/25 11:21:30;;;;;;;0.90;0.80;;;27.90;1.00;;;;;;5126320;27;34078;-76
2022/06/25 11:24:21;;;;;;;1.23;0.90;;;27.70;1.00;;;;;;5129476;27;34359;-78
2022/06/25 11:29:37;;;;;;;3.22;1.00;;;27.40;1.00;;;;;;5157619;27;34536;-77
2022/06/25 11:32:03;;;;;;;2.28;1.25;;;27.30;1.00;;;;;;5131821;27;34348;-77
2022/06/25 11:34:29;;;;;;;2.28;1.10;;;27.30;1.60;;;;;;5127317;27;34097;-78
2022/06/25 11:37:01;;;;;;;2.15;1.15;;;27.60;1.10;;;;;;5129026;27;34304;-79
2022/06/25 11:39:28;;;;;;;3.33;1.15;;;27.80;1.00;;;;;;5127054;27;36651;-79
2022/06/25 11:41:54;;;;;;;1.13;0.90;;;27.90;1.00;;;;;;5162846;27;34110;-77
2022/06/25 11:44:20;;;;;;;4.95;1.02;;;27.90;1.00;;;;;;5154180;27;34109;-77
2022/06/25 11:46:48;;;;;;;2.53;0.90;;;28.00;1.00;;;;;;5145701;27;34025;-77
2022/06/25 11:49:16;;;;;;;2.67;1.17;;;28.10;1.00;;;;;;5127995;27;35762;-78
2022/06/25 11:51:44;;;;;;;1.05;0.70;;;28.20;1.00;;;;;;5149383;27;34276;-77
2022/06/25 11:54:11;;;;;;;0.88;0.88;;;28.10;1.00;;;;;;5127069;27;34151;-77
2022/06/25 11:56:37;;;;;;;1.85;1.10;;;28.10;1.00;;;;;;5106966;27;34146;-76
2022/06/25 11:59:03;;;;;;;1.13;1.02;;;27.90;1.00;;;;;;5144154;27;34254;-76
2022/06/25 12:01:30;;;;;;;1.67;1.13;;;27.90;1.00;;;;;;5146225;27;34161;-79
2022/06/25 12:03:57;;;;;;;3.72;0.88;;;27.80;1.00;;;;;;5128467;27;34243;-77
2022/06/25 12:06:23;;;;;;;3.00;0.95;;;27.80;1.00;;;;;;5143438;27;34190;-76
2022/06/25 12:08:50;;;;;;;1.17;0.90;;;27.70;1.00;;;;;;5149823;27;35942;-76
2022/06/25 12:11:17;;;;;;;1.02;0.90;;;27.80;1.00;;;;;;5165600;27;34278;-76
2022/06/25 12:13:43;;;;;;;3.40;1.05;;;27.90;1.00;;;;;;5140296;27;34281;-76
2022/06/25 12:16:09;;;;;;;3.25;1.10;;;28.10;1.10;;;;;;5124255;27;34521;-76
2022/06/25 12:18:39;;;;;;;3.40;0.95;;;28.20;1.00;;;;;;5149414;27;37116;-77
2022/06/25 12:21:06;;;;;;;2.05;1.33;;;28.10;1.00;;;;;;5131212;27;34045;-78
2022/06/25 12:23:56;;;;;;;1.05;0.90;;;27.90;1.00;;;;;;5143301;27;34320;-77
2022/06/25 12:26:27;;;;;;;4.20;0.80;;;28.00;1.00;;;;;;5106644;27;34402;-77
2022/06/25 12:29:05;;;;;;;3.78;1.20;;;28.00;1.00;;;;;;5144328;27;35779;-78
2022/06/25 12:31:31;;;;;;;1.65;1.00;;;28.00;1.00;;;;;;5143634;27;34352;-76
2022/06/25 12:33:57;;;;;;;1.45;0.90;;;27.90;1.00;;;;;;5140732;27;34329;-76
2022/06/25 12:36:25;;;;;;;3.10;0.90;;;27.90;1.00;;;;;;5131217;27;34068;-77
2022/06/25 12:38:51;;;;;;;1.23;1.13;;;27.90;1.00;;;;;;5148632;27;35167;-76
2022/06/25 12:41:17;;;;;;;1.13;1.00;;;27.80;1.00;;;;;;5144860;27;34084;-77
2022/06/25 12:43:45;;;;;;;1.58;0.88;;;27.70;1.00;;;;;;5145146;27;34314;-75
2022/06/25 12:46:11;;;;;;;1.63;1.38;;;27.60;1.00;;;;;;5143990;27;34432;-76
2022/06/25 12:48:37;;;;;;;0.88;0.82;;;27.50;1.00;;;;;;5125755;27;35704;-76
2022/06/25 12:51:09;;;;;;;1.85;1.00;;;27.50;1.00;;;;;;5123695;27;34558;-76
2022/06/25 12:53:36;;;;;;;2.65;1.15;;;27.40;1.00;;;;;;5143667;27;34156;-76
2022/06/25 12:56:03;;;;;;;0.80;0.80;;;27.50;1.00;;;;;;5161147;27;34195;-76
2022/06/25 12:58:38;;;;;;;1.75;0.80;;;27.50;1.00;;;;;;5144898;27;35992;-76
2022/06/25 13:01:22;;;;;;;1.98;0.98;;;27.40;1.00;;;;;;5147685;27;34164;-76
2022/06/25 13:03:49;;;;;;;1.20;0.88;;;27.30;1.00;;;;;;5164187;27;34071;-79
2022/06/25 13:06:15;;;;;;;2.70;1.08;;;27.20;1.00;;;;;;5127160;27;34174;-76
2022/06/25 13:08:41;;;;;;;1.15;1.05;;;27.20;1.00;;;;;;5140954;27;36059;-77